createdAt,value
2023-01-30T00:00:13.076Z,85
2023-01-30T00:30:16.289Z,85
2023-01-30T01:00:15.975Z,84
2023-01-30T01:30:20.091Z,80
2023-01-30T02:00:11.169Z,81
2023-01-30T02:30:15.070Z,82
2023-01-30T03:00:02.380Z,84
2023-01-30T03:30:24.348Z,84
2023-01-30T04:00:27.117Z,85
2023-01-30T04:30:18.323Z,84
2023-01-30T05:00:02.089Z,84
2023-01-30T05:30:12.801Z,82
2023-01-30T06:00:29.129Z,83
2023-01-30T06:30:03.660Z,81
2023-01-30T07:00:13.052Z,82
2023-01-30T08:00:23.713Z,82
2023-01-30T08:30:07.863Z,83
2023-01-30T09:00:18.430Z,83
2023-01-30T09:30:09.782Z,83
2023-01-30T10:00:23.097Z,84
2023-01-30T10:30:04.561Z,87
2023-01-30T11:00:18.150Z,89
2023-01-30T11:30:29.133Z,89
2023-01-30T12:00:12.439Z,88
2023-01-30T12:30:19.694Z,89
2023-01-30T13:00:12.376Z,89
2023-01-30T13:30:24.308Z,88
2023-01-30T14:00:17.768Z,88
2023-01-30T14:30:28.299Z,89
2023-01-30T15:00:16.421Z,89
2023-01-30T15:30:03.521Z,89
2023-01-30T16:00:06.909Z,89
2023-01-30T16:30:27.930Z,89
2023-01-30T17:00:05.982Z,89
2023-01-30T17:30:19.490Z,90
2023-01-30T17:59:59.823Z,92
2023-01-30T18:30:17.564Z,91
2023-01-30T19:00:29.334Z,90
2023-01-30T19:30:09.513Z,89
2023-01-30T20:00:23.687Z,90
2023-01-30T20:30:15.407Z,89
2023-01-30T21:00:06.126Z,89
2023-01-30T21:30:09.094Z,89
2023-01-30T22:00:27.560Z,89
2023-01-30T22:30:20.552Z,89
2023-01-30T23:00:21.320Z,88
2023-01-30T23:30:17.094Z,89
